createdAt,value
2023-02-06T00:02:14.828Z,-0.87
2023-02-06T00:04:47.816Z,-0.89
2023-02-06T00:07:20.658Z,-1.00
2023-02-06T00:09:53.550Z,-0.93
2023-02-06T00:12:26.976Z,-0.95
2023-02-06T00:14:59.915Z,-1.01
2023-02-06T00:17:36.953Z,-1.01
2023-02-06T00:20:11.604Z,-1.08
2023-02-06T00:22:44.799Z,-1.14
2023-02-06T00:25:17.952Z,-1.10
2023-02-06T00:27:51.484Z,-1.13
2023-02-06T00:30:24.584Z,-1.13
2023-02-06T00:32:59.190Z,-1.15
2023-02-06T00:35:32.242Z,-1.13
2023-02-06T00:38:06.840Z,-1.15
2023-02-06T00:40:39.945Z,-1.20
2023-02-06T00:43:12.385Z,-1.17
2023-02-06T00:45:45.997Z,-1.17
2023-02-06T00:48:20.354Z,-1.17
2023-02-06T00:50:54.666Z,-1.15
2023-02-06T00:53:27.277Z,-1.14
2023-02-06T00:56:00.514Z,-1.17
2023-02-06T00:58:33.652Z,-1.20
2023-02-06T01:01:06.548Z,-1.27
2023-02-06T01:03:40.909Z,-1.24
2023-02-06T01:06:15.441Z,-1.26
2023-02-06T01:08:48.478Z,-1.24
2023-02-06T01:11:24.909Z,-1.27
2023-02-06T01:13:58.940Z,-1.28
2023-02-06T01:16:31.732Z,-1.28
2023-02-06T01:19:06.215Z,-1.30
2023-02-06T01:21:39.320Z,-1.28
2023-02-06T01:24:12.303Z,-1.25
2023-02-06T01:26:45.397Z,-1.28
2023-02-06T01:29:18.209Z,-1.22
2023-02-06T01:31:50.944Z,-1.40
2023-02-06T01:34:25.220Z,-1.20
2023-02-06T01:36:58.110Z,-1.19
2023-02-06T01:39:30.801Z,-1.18
2023-02-06T01:42:04.096Z,-1.18
2023-02-06T01:44:37.648Z,-1.20
2023-02-06T01:47:11.264Z,-1.21
2023-02-06T01:49:50.731Z,-1.16
2023-02-06T01:52:26.046Z,-1.20
2023-02-06T01:55:02.902Z,-1.16
2023-02-06T01:57:39.362Z,-1.16
2023-02-06T02:00:12.857Z,-1.17
2023-02-06T02:02:49.722Z,-1.17
2023-02-06T02:05:24.186Z,-1.20
2023-02-06T02:08:02.311Z,-1.16
2023-02-06T02:10:35.903Z,-1.21
2023-02-06T02:13:08.375Z,-1.19
2023-02-06T02:15:52.870Z,-1.20
2023-02-06T02:18:43.415Z,-1.20
2023-02-06T02:22:06.712Z,-1.20
2023-02-06T02:25:04.133Z,-1.22
2023-02-06T02:28:15.803Z,-1.22
2023-02-06T02:31:16.849Z,-1.30
2023-02-06T02:34:18.465Z,-1.31
2023-02-06T02:37:00.654Z,-1.28
2023-02-06T02:39:43.061Z,-1.31
2023-02-06T02:42:24.087Z,-1.33
2023-02-06T02:45:04.891Z,-1.35
2023-02-06T02:47:46.052Z,-1.37
2023-02-06T02:50:20.880Z,-1.40
2023-02-06T02:52:55.467Z,-1.38
2023-02-06T02:55:28.661Z,-1.40
2023-02-06T02:58:08.286Z,-1.39
2023-02-06T03:00:45.788Z,-1.34
2023-02-06T03:03:23.079Z,-1.39
2023-02-06T03:06:09.890Z,-1.41
2023-02-06T03:08:54.332Z,-1.41
2023-02-06T03:11:29.185Z,-1.45
2023-02-06T03:14:06.728Z,-1.46
2023-02-06T03:16:43.448Z,-1.49
2023-02-06T03:19:24.504Z,-1.59
2023-02-06T03:21:57.419Z,-1.52
2023-02-06T03:24:37.192Z,-1.55
2023-02-06T03:27:13.858Z,-1.55
2023-02-06T03:29:49.328Z,-1.55
2023-02-06T03:32:25.921Z,-1.56
2023-02-06T03:35:02.001Z,-1.55
2023-02-06T03:37:38.171Z,-1.59
2023-02-06T03:40:14.032Z,-1.59
2023-02-06T03:42:52.261Z,-1.56
2023-02-06T03:45:28.962Z,-1.56
2023-02-06T03:48:04.438Z,-1.55
2023-02-06T03:50:40.604Z,-1.58
2023-02-06T03:53:14.761Z,-1.58
2023-02-06T03:55:52.706Z,-1.59
2023-02-06T03:58:25.541Z,-1.57
2023-02-06T04:01:00.446Z,-1.58
2023-02-06T04:03:34.219Z,-1.58
2023-02-06T04:06:07.606Z,-1.61
2023-02-06T04:08:40.784Z,-1.64
2023-02-06T04:11:15.069Z,-1.61
2023-02-06T04:13:48.159Z,-1.62
2023-02-06T04:16:20.948Z,-1.61
2023-02-06T04:18:54.135Z,-1.62
2023-02-06T04:21:27.246Z,-1.62
2023-02-06T04:24:00.120Z,-1.58
2023-02-06T04:26:34.420Z,-1.61
2023-02-06T04:29:07.610Z,-1.56
2023-02-06T04:31:40.907Z,-1.57
2023-02-06T04:34:14.199Z,-1.56
2023-02-06T04:36:46.716Z,-1.54
2023-02-06T04:39:19.568Z,-1.52
2023-02-06T04:41:54.607Z,-1.58
2023-02-06T04:44:27.520Z,-1.57
2023-02-06T04:47:00.630Z,-1.59
2023-02-06T04:49:34.104Z,-1.60
2023-02-06T04:52:06.714Z,-1.61
2023-02-06T04:54:39.886Z,-1.64
2023-02-06T04:57:13.822Z,-1.64
2023-02-06T04:59:46.924Z,-1.65
2023-02-06T05:02:19.741Z,-1.66
2023-02-06T05:04:52.749Z,-1.65
2023-02-06T05:07:25.995Z,-1.64
2023-02-06T05:09:59.089Z,-1.63
2023-02-06T05:12:33.567Z,-1.75
2023-02-06T05:15:07.302Z,-1.63
2023-02-06T05:17:40.713Z,-1.65
2023-02-06T05:20:13.799Z,-1.64
2023-02-06T05:22:46.428Z,-1.64
2023-02-06T05:25:19.791Z,-1.61
2023-02-06T05:27:54.688Z,-1.62
2023-02-06T05:30:27.511Z,-1.63
2023-02-06T05:33:03.546Z,-1.68
2023-02-06T05:35:55.498Z,-1.64
2023-02-06T05:38:31.128Z,-1.64
2023-02-06T05:41:04.257Z,-1.64
2023-02-06T05:43:38.748Z,-1.63
2023-02-06T05:46:13.169Z,-1.65
2023-02-06T05:48:46.041Z,-1.65
2023-02-06T05:51:19.375Z,-1.65
2023-02-06T05:53:52.203Z,-1.64
2023-02-06T05:56:24.771Z,-1.63
2023-02-06T05:58:59.453Z,-1.60
2023-02-06T06:01:32.198Z,-1.60
2023-02-06T06:04:05.123Z,-1.58
2023-02-06T06:06:38.317Z,-1.58
2023-02-06T06:09:11.519Z,-1.60
2023-02-06T06:11:44.597Z,-1.60
2023-02-06T06:14:19.377Z,-1.59
2023-02-06T06:16:52.899Z,-1.81
2023-02-06T06:19:26.454Z,-1.55
2023-02-06T06:21:59.207Z,-1.57
2023-02-06T06:24:31.658Z,-1.54
2023-02-06T06:27:04.816Z,-1.60
2023-02-06T06:29:39.144Z,-1.52
2023-02-06T06:32:12.213Z,-1.52
2023-02-06T06:34:44.851Z,-1.51
2023-02-06T06:37:19.891Z,-1.52
2023-02-06T06:39:53.311Z,-1.47
2023-02-06T06:42:26.370Z,-1.46
2023-02-06T06:45:00.514Z,-1.48
2023-02-06T06:47:33.383Z,-1.49
2023-02-06T06:50:07.209Z,-1.47
2023-02-06T06:52:40.135Z,-1.55
2023-02-06T06:55:13.089Z,-1.58
2023-02-06T06:57:46.073Z,-1.52
2023-02-06T07:00:21.095Z,-1.58
2023-02-06T07:02:53.961Z,-1.55
2023-02-06T07:05:26.685Z,-1.52
2023-02-06T07:07:59.862Z,-1.48
2023-02-06T07:10:32.345Z,-1.44
2023-02-06T07:13:05.535Z,-1.38
2023-02-06T07:15:39.890Z,-1.34
2023-02-06T07:18:12.694Z,-1.33
2023-02-06T07:20:45.308Z,-1.33
2023-02-06T07:23:18.399Z,-1.33
2023-02-06T07:25:51.410Z,-1.33
2023-02-06T07:28:24.216Z,-1.32
2023-02-06T07:31:02.256Z,-1.37
2023-02-06T07:33:36.151Z,-1.28
2023-02-06T07:36:11.356Z,-1.27
2023-02-06T07:38:44.138Z,-1.21
2023-02-06T07:41:18.115Z,-1.18
2023-02-06T07:43:51.147Z,-1.18
2023-02-06T07:46:25.675Z,-1.14
2023-02-06T07:48:58.460Z,-1.11
2023-02-06T07:51:31.851Z,-1.11
2023-02-06T07:54:05.349Z,-1.14
2023-02-06T07:56:38.618Z,-1.23
2023-02-06T07:59:11.678Z,-1.37
2023-02-06T08:01:45.921Z,-1.19
2023-02-06T08:04:18.510Z,-1.16
2023-02-06T08:06:51.700Z,-1.13
2023-02-06T08:09:25.009Z,-1.20
2023-02-06T08:11:58.250Z,-1.07
2023-02-06T08:14:31.441Z,-1.04
2023-02-06T08:17:05.987Z,-1.03
2023-02-06T08:19:38.674Z,-1.07
2023-02-06T08:22:14.225Z,-1.04
2023-02-06T08:24:47.763Z,-1.02
2023-02-06T08:27:20.270Z,-1.07
2023-02-06T08:29:53.477Z,-1.06
2023-02-06T08:32:32.875Z,-1.14
2023-02-06T08:35:09.794Z,-1.10
2023-02-06T08:37:42.580Z,-1.08
2023-02-06T08:40:15.861Z,-1.10
2023-02-06T08:42:51.164Z,-1.01
2023-02-06T08:45:24.331Z,-1.01
2023-02-06T08:47:58.916Z,-1.00
2023-02-06T08:50:31.964Z,-0.99
2023-02-06T08:53:04.687Z,-0.98
2023-02-06T08:55:38.444Z,-0.97
2023-02-06T08:58:11.173Z,-1.01
2023-02-06T09:00:44.262Z,-0.93
2023-02-06T09:03:18.561Z,-0.92
2023-02-06T09:05:52.674Z,-1.01
2023-02-06T09:08:27.305Z,-0.91
2023-02-06T09:11:06.262Z,-0.91
2023-02-06T09:13:39.445Z,-0.96
2023-02-06T09:16:12.980Z,-0.94
2023-02-06T09:18:48.002Z,-0.93
2023-02-06T09:21:22.756Z,-0.88
2023-02-06T09:23:59.432Z,-0.96
2023-02-06T09:26:38.881Z,-0.94
2023-02-06T09:29:13.856Z,-1.12
2023-02-06T09:31:47.897Z,-1.01
2023-02-06T09:34:24.636Z,-0.97
2023-02-06T09:36:58.242Z,-0.94
2023-02-06T09:39:31.774Z,-0.94
2023-02-06T09:42:07.092Z,-0.88
2023-02-06T09:44:44.736Z,-0.88
2023-02-06T09:47:24.470Z,-0.96
2023-02-06T09:50:03.245Z,-0.99
2023-02-06T09:53:00.196Z,-1.02
2023-02-06T09:55:39.482Z,-1.01
2023-02-06T09:58:24.314Z,-1.01
2023-02-06T10:01:05.777Z,-1.00
2023-02-06T10:04:00.952Z,-1.06
2023-02-06T10:06:46.572Z,-0.98
2023-02-06T10:09:24.629Z,-1.02
2023-02-06T10:12:02.242Z,-1.00
2023-02-06T10:14:41.693Z,-1.06
2023-02-06T10:17:21.542Z,-1.10
2023-02-06T10:19:59.800Z,-1.08
2023-02-06T10:22:39.597Z,-1.09
2023-02-06T10:25:21.013Z,-1.04
2023-02-06T10:28:00.076Z,-1.00
2023-02-06T10:30:46.073Z,-0.98
2023-02-06T10:33:27.366Z,-1.01
2023-02-06T10:36:08.470Z,-1.06
2023-02-06T10:39:11.134Z,-1.04
2023-02-06T10:41:58.873Z,-1.18
2023-02-06T10:44:38.263Z,-1.13
2023-02-06T10:47:31.243Z,-1.08
2023-02-06T10:50:17.063Z,-1.04
2023-02-06T10:52:54.130Z,-1.01
2023-02-06T10:55:38.690Z,-0.98
2023-02-06T10:58:19.418Z,-0.98
2023-02-06T11:00:55.735Z,-0.97
2023-02-06T11:03:32.495Z,-0.99
2023-02-06T11:06:06.358Z,-0.95
2023-02-06T11:08:48.055Z,-1.03
2023-02-06T11:11:30.242Z,-0.97
2023-02-06T11:14:08.485Z,-0.94
2023-02-06T11:16:46.518Z,-0.98
2023-02-06T11:19:25.417Z,-1.00
2023-02-06T11:22:11.189Z,-1.00
2023-02-06T11:25:01.185Z,-0.94
2023-02-06T11:27:38.021Z,-0.92
2023-02-06T11:30:30.905Z,-0.93
2023-02-06T11:33:07.386Z,-0.88
2023-02-06T11:35:49.036Z,-0.86
2023-02-06T11:38:24.718Z,-0.86
2023-02-06T11:41:04.270Z,-0.86
2023-02-06T11:43:51.361Z,-0.84
2023-02-06T11:46:27.326Z,-0.85
2023-02-06T11:49:06.481Z,-0.88
2023-02-06T11:51:51.786Z,-0.96
2023-02-06T11:54:28.601Z,-0.89
2023-02-06T11:57:05.060Z,-0.87
2023-02-06T11:59:50.778Z,-0.88
2023-02-06T12:02:28.086Z,-1.02
2023-02-06T12:05:05.392Z,-1.03
2023-02-06T12:07:42.520Z,-1.06
2023-02-06T12:10:17.822Z,-1.06
2023-02-06T12:12:56.420Z,-0.98
2023-02-06T12:15:46.712Z,-1.00
2023-02-06T12:18:24.148Z,-1.03
2023-02-06T12:21:00.780Z,-1.03
2023-02-06T12:23:38.442Z,-0.98
2023-02-06T12:26:15.387Z,-1.01
2023-02-06T12:29:10.239Z,-1.03
2023-02-06T12:32:38.758Z,-1.05
2023-02-06T12:35:52.489Z,-1.09
2023-02-06T12:38:38.312Z,-1.21
2023-02-06T12:41:43.985Z,-1.14
2023-02-06T12:44:28.122Z,-1.13
2023-02-06T12:47:11.651Z,-1.15
2023-02-06T12:49:54.193Z,-1.16
2023-02-06T12:52:32.080Z,-1.17
2023-02-06T12:55:16.921Z,-1.31
2023-02-06T12:57:49.842Z,-1.23
2023-02-06T13:00:46.074Z,-1.28
2023-02-06T13:03:32.056Z,-1.32
2023-02-06T13:06:17.822Z,-1.24
2023-02-06T13:08:59.393Z,-1.76
2023-02-06T13:11:38.754Z,-1.32
2023-02-06T13:14:19.308Z,-1.24
2023-02-06T13:16:56.753Z,-1.31
2023-02-06T13:19:51.217Z,-1.37
2023-02-06T13:22:46.167Z,-1.31
2023-02-06T13:25:51.546Z,-1.37
2023-02-06T13:28:57.258Z,-1.33
2023-02-06T13:31:33.848Z,-1.32
2023-02-06T13:34:17.050Z,-1.38
2023-02-06T13:36:52.854Z,-1.34
2023-02-06T13:39:32.511Z,-1.31
2023-02-06T13:42:35.710Z,-1.31
2023-02-06T13:45:20.379Z,-1.33
2023-02-06T13:48:30.546Z,-1.33
2023-02-06T13:51:36.833Z,-1.45
2023-02-06T13:54:58.670Z,-1.39
2023-02-06T13:57:58.778Z,-1.39
2023-02-06T14:00:39.345Z,-1.44
2023-02-06T14:03:16.629Z,-1.41
2023-02-06T14:05:59.629Z,-1.49
2023-02-06T14:08:48.058Z,-1.50
2023-02-06T14:11:52.135Z,-1.47
2023-02-06T14:14:38.274Z,-1.49
2023-02-06T14:17:22.314Z,-1.57
2023-02-06T14:20:02.146Z,-1.54
2023-02-06T14:22:47.320Z,-1.61
2023-02-06T14:25:35.058Z,-1.58
2023-02-06T14:28:19.423Z,-1.51
2023-02-06T14:31:00.900Z,-1.51
2023-02-06T14:33:51.593Z,-1.49
2023-02-06T14:36:39.495Z,-1.55
2023-02-06T14:39:36.599Z,-1.47
2023-02-06T14:42:17.631Z,-1.48
2023-02-06T14:44:55.152Z,-1.50
2023-02-06T14:47:30.530Z,-1.51
2023-02-06T14:50:07.070Z,-1.52
2023-02-06T14:52:40.516Z,-1.51
2023-02-06T14:55:31.417Z,-1.57
2023-02-06T14:58:05.331Z,-1.60
2023-02-06T15:00:38.604Z,-1.57
2023-02-06T15:03:16.441Z,-1.60
2023-02-06T15:06:00.990Z,-1.58
2023-02-06T15:08:35.210Z,-1.60
2023-02-06T15:11:19.864Z,-1.59
2023-02-06T15:13:54.324Z,-1.62
2023-02-06T15:16:28.019Z,-1.65
2023-02-06T15:19:12.188Z,-1.75
2023-02-06T15:21:47.375Z,-1.60
2023-02-06T15:24:39.315Z,-1.59
2023-02-06T15:27:23.928Z,-1.65
2023-02-06T15:30:01.327Z,-1.65
2023-02-06T15:32:38.063Z,-1.59
2023-02-06T15:35:20.935Z,-1.60
2023-02-06T15:37:56.794Z,-1.60
2023-02-06T15:40:32.505Z,-1.63
2023-02-06T15:43:06.007Z,-1.58
2023-02-06T15:45:41.237Z,-1.57
2023-02-06T15:48:23.783Z,-1.57
2023-02-06T15:50:59.803Z,-1.58
2023-02-06T15:53:38.349Z,-1.58
2023-02-06T15:56:22.394Z,-1.60
2023-02-06T15:58:58.697Z,-1.72
2023-02-06T16:01:36.173Z,-1.62
2023-02-06T16:04:17.164Z,-1.66
2023-02-06T16:07:01.618Z,-1.61
2023-02-06T16:09:42.622Z,-1.61
2023-02-06T16:12:16.641Z,-1.72
2023-02-06T16:14:56.795Z,-1.63
2023-02-06T16:17:34.372Z,-1.68
2023-02-06T16:20:33.381Z,-1.66
2023-02-06T16:23:27.973Z,-1.65
2023-02-06T16:26:05.323Z,-1.70
2023-02-06T16:28:42.391Z,-1.69
2023-02-06T16:31:15.932Z,-1.72
2023-02-06T16:33:51.038Z,-1.72
2023-02-06T16:36:24.805Z,-1.80
2023-02-06T16:39:04.013Z,-1.83
2023-02-06T16:41:40.623Z,-1.76
2023-02-06T16:44:16.190Z,-1.81
2023-02-06T16:46:49.374Z,-1.81
2023-02-06T16:49:23.216Z,-1.80
2023-02-06T16:51:55.873Z,-1.82
2023-02-06T16:54:32.423Z,-1.81
2023-02-06T16:57:09.862Z,-1.77
2023-02-06T16:59:42.602Z,-1.77
2023-02-06T17:02:16.261Z,-1.86
2023-02-06T17:04:49.371Z,-1.83
2023-02-06T17:07:25.291Z,-1.79
2023-02-06T17:09:59.474Z,-1.81
2023-02-06T17:12:42.164Z,-1.83
2023-02-06T17:15:16.035Z,-1.89
2023-02-06T17:17:49.479Z,-1.84
2023-02-06T17:20:30.732Z,-1.83
2023-02-06T17:23:04.487Z,-1.82
2023-02-06T17:25:38.667Z,-1.85
2023-02-06T17:28:15.860Z,-1.87
2023-02-06T17:30:50.907Z,-1.82
2023-02-06T17:33:24.017Z,-1.84
2023-02-06T17:35:57.467Z,-1.78
2023-02-06T17:38:30.629Z,-1.78
2023-02-06T17:41:03.539Z,-1.78
2023-02-06T17:43:37.755Z,-1.72
2023-02-06T17:46:11.768Z,-1.71
2023-02-06T17:48:45.209Z,-1.69
2023-02-06T17:51:17.843Z,-1.73
2023-02-06T17:53:51.998Z,-1.68
2023-02-06T17:56:25.667Z,-1.67
2023-02-06T17:59:00.215Z,-1.75
2023-02-06T18:01:33.458Z,-1.71
2023-02-06T18:04:06.464Z,-1.68
2023-02-06T18:06:40.107Z,-1.74
2023-02-06T18:09:13.373Z,-1.68
2023-02-06T18:11:47.217Z,-1.70
2023-02-06T18:14:21.885Z,-1.86
2023-02-06T18:16:54.795Z,-1.71
2023-02-06T18:19:27.893Z,-1.71
2023-02-06T18:22:00.936Z,-1.81
2023-02-06T18:24:33.929Z,-1.73
2023-02-06T18:27:07.583Z,-1.72
2023-02-06T18:29:49.779Z,-1.72
2023-02-06T18:32:35.073Z,-1.72
2023-02-06T18:35:10.079Z,-1.71
2023-02-06T18:37:47.314Z,-1.83
2023-02-06T18:40:24.015Z,-2.35
2023-02-06T18:42:57.138Z,-1.72
2023-02-06T18:45:37.233Z,-1.81
2023-02-06T18:48:12.644Z,-1.75
2023-02-06T18:50:47.623Z,-1.79
2023-02-06T18:53:20.205Z,-1.81
2023-02-06T18:58:31.699Z,-1.89
2023-02-06T19:01:32.404Z,-1.84
2023-02-06T19:04:10.964Z,-1.92
2023-02-06T19:06:45.677Z,-1.87
2023-02-06T19:09:20.615Z,-1.88
2023-02-06T19:11:54.498Z,-1.88
2023-02-06T19:14:28.583Z,-1.89
2023-02-06T19:17:01.999Z,-1.89
2023-02-06T19:19:35.993Z,-1.98
2023-02-06T19:22:08.750Z,-1.87
2023-02-06T19:24:45.109Z,-1.87
2023-02-06T19:27:22.156Z,-1.86
2023-02-06T19:29:57.628Z,-1.94
2023-02-06T19:32:32.692Z,-1.85
2023-02-06T19:35:06.409Z,-1.96
2023-02-06T19:37:42.288Z,-1.94
2023-02-06T19:40:15.071Z,-1.82
2023-02-06T19:42:47.943Z,-1.82
2023-02-06T19:45:22.248Z,-1.80
2023-02-06T19:47:57.389Z,-1.80
2023-02-06T19:50:30.648Z,-1.83
2023-02-06T19:53:03.438Z,-1.79
2023-02-06T19:55:37.184Z,-1.79
2023-02-06T19:58:10.369Z,-1.84
2023-02-06T20:00:45.193Z,-1.80
2023-02-06T20:03:17.708Z,-1.80
2023-02-06T20:05:51.103Z,-1.77
2023-02-06T20:08:25.718Z,-1.76
2023-02-06T20:10:58.619Z,-1.75
2023-02-06T20:13:31.589Z,-1.78
2023-02-06T20:16:13.802Z,-1.81
2023-02-06T20:18:47.226Z,-1.81
2023-02-06T20:21:23.067Z,-1.81
2023-02-06T20:23:57.376Z,-1.85
2023-02-06T20:26:33.099Z,-1.92
2023-02-06T20:29:07.989Z,-1.88
2023-02-06T20:31:42.225Z,-1.88
2023-02-06T20:34:15.688Z,-1.87
2023-02-06T20:36:48.901Z,-1.88
2023-02-06T20:39:22.681Z,-1.91
2023-02-06T20:41:55.512Z,-1.90
2023-02-06T20:44:28.842Z,-1.99
2023-02-06T20:47:03.381Z,-2.03
2023-02-06T20:49:36.372Z,-1.92
2023-02-06T20:52:09.180Z,-1.90
2023-02-06T20:54:42.485Z,-1.89
2023-02-06T20:57:15.559Z,-1.88
2023-02-06T20:59:48.797Z,-1.88
2023-02-06T21:02:23.645Z,-1.96
2023-02-06T21:04:56.564Z,-1.86
2023-02-06T21:07:30.262Z,-1.97
2023-02-06T21:10:04.692Z,-1.93
2023-02-06T21:12:37.714Z,-1.96
2023-02-06T21:15:11.003Z,-2.00
2023-02-06T21:17:45.228Z,-2.09
2023-02-06T21:20:18.392Z,-1.94
2023-02-06T21:22:53.103Z,-2.04
2023-02-06T21:25:26.566Z,-1.92
2023-02-06T21:27:59.422Z,-1.93
2023-02-06T21:30:33.113Z,-1.98
2023-02-06T21:33:07.302Z,-1.97
2023-02-06T21:35:40.665Z,-2.03
2023-02-06T21:38:13.365Z,-2.01
2023-02-06T21:40:46.694Z,-2.02
2023-02-06T21:43:19.834Z,-2.05
2023-02-06T21:45:52.768Z,-2.03
2023-02-06T21:48:27.113Z,-2.04
2023-02-06T21:51:06.921Z,-1.99
2023-02-06T21:53:40.175Z,-1.97
2023-02-06T21:56:16.389Z,-1.94
2023-02-06T21:58:50.461Z,-1.92
2023-02-06T22:01:25.582Z,-1.94
2023-02-06T22:04:00.500Z,-1.91
2023-02-06T22:06:37.073Z,-1.94
2023-02-06T22:09:15.670Z,-1.92
2023-02-06T22:11:48.463Z,-2.04
2023-02-06T22:14:21.718Z,-1.96
2023-02-06T22:16:54.877Z,-2.02
2023-02-06T22:19:29.344Z,-2.01
2023-02-06T22:22:02.651Z,-1.96
2023-02-06T22:24:35.494Z,-1.93
2023-02-06T22:27:08.051Z,-1.92
2023-02-06T22:29:41.080Z,-2.02
2023-02-06T22:32:14.076Z,-1.93
2023-02-06T22:34:49.938Z,-1.94
2023-02-06T22:37:23.305Z,-1.99
2023-02-06T22:39:56.251Z,-2.06
2023-02-06T22:42:29.785Z,-1.99
2023-02-06T22:45:03.318Z,-2.00
2023-02-06T22:47:36.537Z,-2.12
2023-02-06T22:50:10.564Z,-2.05
2023-02-06T22:53:02.643Z,-2.04
2023-02-06T22:55:57.931Z,-2.11
2023-02-06T22:58:30.736Z,-2.17
2023-02-06T23:01:04.230Z,-2.05
2023-02-06T23:03:36.973Z,-2.07
2023-02-06T23:06:13.756Z,-2.05
2023-02-06T23:08:46.600Z,-2.08
2023-02-06T23:11:20.155Z,-2.08
2023-02-06T23:13:55.832Z,-2.12
2023-02-06T23:16:30.814Z,-2.11
2023-02-06T23:19:05.744Z,-2.14
2023-02-06T23:21:41.741Z,-2.14
2023-02-06T23:24:15.289Z,-2.14
2023-02-06T23:26:50.537Z,-2.16
2023-02-06T23:29:24.434Z,-2.17
2023-02-06T23:31:57.528Z,-2.17
2023-02-06T23:34:30.380Z,-2.16
2023-02-06T23:37:04.347Z,-2.17
2023-02-06T23:39:37.449Z,-2.19
2023-02-06T23:42:10.447Z,-2.19
2023-02-06T23:44:43.246Z,-2.20
2023-02-06T23:47:16.089Z,-2.22
2023-02-06T23:49:51.515Z,-2.23
2023-02-06T23:52:26.118Z,-2.19
2023-02-06T23:54:58.920Z,-2.18
2023-02-06T23:57:32.101Z,-2.18
